Time;durP1;ratioP1;P1;durP2;ratioP2;P2;SDS_P1;SDS_P2;PMS_P1;PMS_P2;Temp;Humidity;BMP_temperature;BMP_pressure;BME280_temperature;BME280_humidity;BME280_pressure;Samples;Min_cycle;Max_cycle;Signal;HPM_P1;HPM_P2
2022/05/06 00:00:24;;;;;;;31.83;17.63;;;;;9.40;94570.00;;;;7390485;19;20483;-77
2022/05/06 00:02:52;;;;;;;28.23;17.60;;;;;9.40;94573.00;;;;7391076;19;20125;-76
2022/05/06 00:05:19;;;;;;;25.00;16.23;;;;;9.60;94575.00;;;;7389056;19;20128;-77
2022/05/06 00:07:53;;;;;;;22.80;16.53;;;;;9.60;94574.00;;;;7392634;19;20140;-77
2022/05/06 00:10:21;;;;;;;29.20;17.70;;;;;9.50;94575.00;;;;7395710;19;20661;-76
2022/05/06 00:12:49;;;;;;;29.37;18.67;;;;;9.40;94566.00;;;;7397844;19;20612;-77
2022/05/06 00:15:22;;;;;;;30.27;18.40;;;;;9.30;94574.00;;;;7394212;19;20165;-78
2022/05/06 00:17:50;;;;;;;28.43;19.57;;;;;9.50;94566.00;;;;7399020;19;20773;-77
2022/05/06 00:20:17;;;;;;;33.37;19.40;;;;;9.50;94572.00;;;;7396603;19;20197;-78
2022/05/06 00:22:52;;;;;;;31.00;18.97;;;;;9.50;94565.00;;;;7396212;19;20610;-77
2022/05/06 00:25:19;;;;;;;28.60;19.53;;;;;9.60;94565.00;;;;7397492;19;20635;-77
2022/05/06 00:27:47;;;;;;;29.80;19.23;;;;;9.40;94570.00;;;;7397520;19;20133;-77
2022/05/06 00:30:21;;;;;;;28.23;19.33;;;;;9.40;94562.00;;;;7395594;19;20501;-76
2022/05/06 00:32:55;;;;;;;30.23;19.73;;;;;9.50;94564.00;;;;7396617;19;20141;-79
2022/05/06 00:35:36;;;;;;;34.13;20.63;;;;;9.50;94561.00;;;;7394605;19;20137;-76
2022/05/06 00:38:05;;;;;;;32.20;19.17;;;;;9.50;94563.00;;;;7396183;19;20232;-76
2022/05/06 00:40:39;;;;;;;33.93;18.63;;;;;9.50;94561.00;;;;7395526;19;20136;-77
2022/05/06 00:43:06;;;;;;;31.43;20.23;;;;;9.40;94562.00;;;;7389097;19;20166;-76
2022/05/06 00:45:53;;;;;;;33.17;19.57;;;;;9.40;94560.00;;;;7392979;19;20137;-77
2022/05/06 00:48:30;;;;;;;34.03;19.70;;;;;9.50;94568.00;;;;7395714;19;20129;-76
2022/05/06 00:51:00;;;;;;;34.13;20.17;;;;;9.40;94567.00;;;;7395663;19;20145;-77
2022/05/06 00:53:36;;;;;;;30.67;21.03;;;;;9.40;94559.00;;;;7395330;19;20604;-76
2022/05/06 00:56:07;;;;;;;31.17;19.20;;;;;9.40;94564.00;;;;7393509;19;20133;-77
2022/05/06 00:58:45;;;;;;;27.40;19.13;;;;;9.40;94567.00;;;;7395826;19;20136;-77
2022/05/06 01:01:13;;;;;;;25.77;18.77;;;;;9.50;94563.00;;;;7398858;19;20153;-77
2022/05/06 01:03:42;;;;;;;26.37;18.80;;;;;9.50;94566.00;;;;7399717;19;20136;-78
2022/05/06 01:06:16;;;;;;;33.67;20.77;;;;;9.40;94568.00;;;;7398322;19;20136;-77
2022/05/06 01:08:44;;;;;;;23.97;16.73;;;;;9.50;94565.00;;;;7398339;19;20540;-78
2022/05/06 01:11:13;;;;;;;24.50;17.80;;;;;9.70;94562.00;;;;7394980;19;20168;-77
2022/05/06 01:13:53;;;;;;;28.07;16.80;;;;;9.50;94559.00;;;;7396549;19;20147;-77
2022/05/06 01:16:21;;;;;;;32.40;18.60;;;;;9.70;94566.00;;;;7396407;19;20125;-79
2022/05/06 01:18:56;;;;;;;27.70;17.80;;;;;9.70;94553.00;;;;7398930;19;20608;-77
2022/05/06 01:21:26;;;;;;;25.63;16.83;;;;;9.60;94550.00;;;;7398897;19;20121;-78
2022/05/06 01:23:53;;;;;;;27.57;17.70;;;;;9.70;94563.00;;;;7396299;19;20154;-77
2022/05/06 01:27:04;;;;;;;25.27;18.40;;;;;9.60;94553.00;;;;7396611;19;20124;-79
2022/05/06 01:29:32;;;;;;;25.63;17.37;;;;;9.50;94552.00;;;;7395474;19;20139;-77
2022/05/06 01:32:06;;;;;;;29.27;18.03;;;;;9.60;94561.00;;;;7395764;19;20137;-77
2022/05/06 01:34:44;;;;;;;28.23;18.27;;;;;9.50;94557.00;;;;7392754;19;20616;-77
2022/05/06 01:37:21;;;;;;;26.50;17.27;;;;;9.40;94548.00;;;;7397091;19;20121;-77
2022/05/06 01:39:53;;;;;;;25.17;17.27;;;;;9.50;94562.00;;;;7394436;19;20125;-78
2022/05/06 01:42:31;;;;;;;26.07;17.63;;;;;9.40;94558.00;;;;7394613;19;20141;-78
2022/05/06 01:45:01;;;;;;;28.67;17.77;;;;;9.50;94564.00;;;;7393628;19;20515;-77
2022/05/06 01:47:37;;;;;;;27.23;18.87;;;;;9.30;94563.00;;;;7395523;19;20121;-78
2022/05/06 01:50:06;;;;;;;27.67;18.67;;;;;9.50;94550.00;;;;7394416;19;20148;-77
2022/05/06 01:52:37;;;;;;;30.37;19.13;;;;;9.30;94569.00;;;;7395162;19;20125;-78
2022/05/06 01:55:14;;;;;;;30.60;18.90;;;;;9.30;94570.00;;;;7393366;19;20214;-78
2022/05/06 01:57:42;;;;;;;27.83;19.00;;;;;9.30;94566.00;;;;7393158;19;20576;-77
2022/05/06 02:00:12;;;;;;;27.80;19.00;;;;;9.30;94564.00;;;;7392834;19;20146;-77
2022/05/06 02:02:45;;;;;;;30.57;20.17;;;;;9.30;94570.00;;;;7392998;19;20147;-77
2022/05/06 02:05:19;;;;;;;25.67;18.90;;;;;9.30;94563.00;;;;7393880;19;20631;-78
2022/05/06 02:07:54;;;;;;;30.90;19.77;;;;;9.50;94568.00;;;;7392910;19;20133;-77
2022/05/06 02:10:25;;;;;;;27.67;20.33;;;;;9.40;94573.00;;;;7391328;19;20165;-76
2022/05/06 02:12:52;;;;;;;27.47;19.67;;;;;9.30;94568.00;;;;7392999;19;20607;-77
2022/05/06 02:15:27;;;;;;;35.30;20.13;;;;;9.20;94566.00;;;;7392901;19;20152;-77
2022/05/06 02:17:55;;;;;;;33.80;20.43;;;;;9.20;94565.00;;;;7392922;19;20129;-76
2022/05/06 02:20:22;;;;;;;31.20;20.40;;;;;8.90;94565.00;;;;7398319;19;20139;-77
2022/05/06 02:22:56;;;;;;;33.67;21.87;;;;;8.90;94570.00;;;;7404223;19;20136;-76
2022/05/06 02:25:24;;;;;;;31.93;22.10;;;;;8.90;94567.00;;;;7397124;19;20149;-75
2022/05/06 02:27:51;;;;;;;35.37;22.13;;;;;8.80;94574.00;;;;7400974;19;20145;-75
2022/05/06 02:33:23;;;;;;;34.23;22.30;;;;;8.80;94576.00;;;;7393253;19;20168;-76
2022/05/06 02:36:05;;;;;;;36.17;23.83;;;;;8.80;94567.00;;;;7392322;19;20129;-76
2022/05/06 02:38:33;;;;;;;33.70;22.23;;;;;8.70;94573.00;;;;7392965;19;20137;-77
2022/05/06 02:41:07;;;;;;;32.47;23.37;;;;;8.80;94580.00;;;;7392057;19;20132;-77
2022/05/06 02:43:36;;;;;;;36.40;23.10;;;;;8.80;94579.00;;;;7388849;19;20143;-77
2022/05/06 02:46:03;;;;;;;34.50;22.80;;;;;8.70;94586.00;;;;7393899;19;20124;-76
2022/05/06 02:48:44;;;;;;;39.37;25.00;;;;;8.90;94582.00;;;;7393404;19;20164;-75
2022/05/06 02:51:13;;;;;;;41.67;24.13;;;;;8.70;94578.00;;;;7396012;19;20157;-75
2022/05/06 02:53:47;;;;;;;35.20;23.70;;;;;8.60;94581.00;;;;7399987;19;20710;-77
2022/05/06 02:56:14;;;;;;;32.33;23.53;;;;;8.50;94578.00;;;;7396680;19;20249;-75
2022/05/06 02:58:42;;;;;;;37.23;23.87;;;;;8.40;94576.00;;;;7399615;19;20121;-76
2022/05/06 03:01:16;;;;;;;37.23;23.80;;;;;8.40;94580.00;;;;7400848;19;20490;-75
2022/05/06 03:03:44;;;;;;;42.83;23.70;;;;;8.50;94582.00;;;;7402828;19;20109;-76
2022/05/06 03:06:11;;;;;;;37.80;24.03;;;;;8.60;94584.00;;;;7402246;19;20145;-75
2022/05/06 03:08:46;;;;;;;38.97;22.97;;;;;8.40;94584.00;;;;7401926;19;20146;-75
2022/05/06 03:11:13;;;;;;;29.50;21.40;;;;;8.40;94584.00;;;;7398293;19;20671;-76
2022/05/06 03:13:41;;;;;;;32.40;22.83;;;;;8.40;94587.00;;;;7404581;19;20137;-77
2022/05/06 03:16:15;;;;;;;31.90;22.30;;;;;8.40;94574.00;;;;7401393;19;20127;-76
2022/05/06 03:18:42;;;;;;;40.97;24.17;;;;;8.50;94582.00;;;;7401385;19;20141;-76
2022/05/06 03:21:10;;;;;;;39.67;24.17;;;;;8.50;94577.00;;;;7406799;19;20161;-76
2022/05/06 03:23:50;;;;;;;36.20;24.83;;;;;8.50;94582.00;;;;7399688;19;20125;-76
2022/05/06 03:26:18;;;;;;;38.07;24.37;;;;;8.50;94588.00;;;;7398493;19;20157;-77
2022/05/06 03:28:57;;;;;;;40.70;24.13;;;;;8.40;94576.00;;;;7395831;19;20133;-77
2022/05/06 03:31:28;;;;;;;34.70;24.30;;;;;8.40;94577.00;;;;7394420;19;20128;-77
2022/05/06 03:34:16;;;;;;;37.40;24.60;;;;;8.50;94572.00;;;;7391138;19;20164;-77
2022/05/06 03:36:57;;;;;;;38.53;26.80;;;;;8.40;94571.00;;;;7392432;19;20125;-76
2022/05/06 03:39:32;;;;;;;40.93;26.53;;;;;8.50;94567.00;;;;7393023;19;20133;-76
2022/05/06 03:41:59;;;;;;;37.53;26.40;;;;;8.40;94569.00;;;;7397632;19;20136;-77
2022/05/06 03:44:27;;;;;;;40.73;26.57;;;;;8.50;94572.00;;;;7402234;19;20121;-77
2022/05/06 03:47:02;;;;;;;43.20;27.63;;;;;8.40;94563.00;;;;7404680;19;20144;-76
2022/05/06 03:49:29;;;;;;;44.70;28.50;;;;;8.50;94563.00;;;;7400881;19;20197;-76
2022/05/06 03:51:57;;;;;;;41.43;28.40;;;;;8.50;94558.00;;;;7400526;19;20140;-77
2022/05/06 03:54:31;;;;;;;45.80;28.30;;;;;8.50;94564.00;;;;7402696;19;20129;-76
2022/05/06 03:56:58;;;;;;;44.17;27.27;;;;;8.60;94553.00;;;;7398178;19;20200;-77
2022/05/06 03:59:26;;;;;;;39.43;28.43;;;;;8.70;94561.00;;;;7399267;19;20583;-76
2022/05/06 04:02:00;;;;;;;44.90;28.00;;;;;8.60;94568.00;;;;7401288;19;20504;-77
2022/05/06 04:04:28;;;;;;;41.63;27.03;;;;;8.60;94566.00;;;;7401546;19;20121;-77
2022/05/06 04:06:56;;;;;;;39.90;26.40;;;;;8.60;94568.00;;;;7400174;19;20148;-76
2022/05/06 04:09:30;;;;;;;37.07;25.53;;;;;8.50;94576.00;;;;7398851;19;20129;-77
2022/05/06 04:11:58;;;;;;;37.53;27.23;;;;;8.50;94563.00;;;;7401464;19;20499;-77
2022/05/06 04:14:26;;;;;;;41.53;27.10;;;;;8.60;94572.00;;;;7401887;19;20552;-76
2022/05/06 04:17:03;;;;;;;40.83;25.97;;;;;8.60;94574.00;;;;7400238;19;20124;-77
2022/05/06 04:19:31;;;;;;;44.17;27.23;;;;;8.60;94575.00;;;;7400652;19;20200;-76
2022/05/06 04:24:50;;;;;;;38.60;25.33;;;;;8.60;94586.00;;;;7401287;19;20161;-76
2022/05/06 04:27:18;;;;;;;37.60;25.03;;;;;8.70;94591.00;;;;7402185;19;20161;-76
2022/05/06 04:29:46;;;;;;;38.53;25.57;;;;;8.70;94587.00;;;;7400826;19;20199;-78
2022/05/06 04:32:20;;;;;;;35.70;25.00;;;;;8.70;94594.00;;;;7403863;19;20124;-77
2022/05/06 04:34:54;;;;;;;32.43;24.90;;;;;8.70;94600.00;;;;7397186;19;20161;-77
2022/05/06 04:37:29;;;;;;;38.30;25.53;;;;;8.70;94608.00;;;;7397758;19;20135;-76
2022/05/06 04:39:57;;;;;;;39.83;25.73;;;;;8.70;94610.00;;;;7397904;19;20617;-77
2022/05/06 04:42:25;;;;;;;38.93;26.00;;;;;8.90;94602.00;;;;7400551;19;20157;-76
2022/05/06 04:45:01;;;;;;;43.33;26.47;;;;;8.80;94606.00;;;;7397711;19;20761;-76
2022/05/06 04:47:28;;;;;;;37.70;26.10;;;;;8.70;94605.00;;;;7394596;19;20223;-76
2022/05/06 04:49:56;;;;;;;43.83;24.33;;;;;8.50;94604.00;;;;7411979;19;20140;-76
2022/05/06 04:52:31;;;;;;;36.50;25.07;;;;;8.50;94614.00;;;;7414585;19;20215;-75
2022/05/06 04:54:58;;;;;;;45.20;25.23;;;;;8.50;94608.00;;;;7412457;19;20156;-75
2022/05/06 04:57:26;;;;;;;32.67;24.87;;;;;8.60;94614.00;;;;7407498;19;20595;-75
2022/05/06 05:00:00;;;;;;;38.17;24.50;;;;;8.60;94613.00;;;;7406839;19;20137;-76
2022/05/06 05:02:31;;;;;;;39.13;25.27;;;;;8.50;94625.00;;;;7403738;19;20137;-75
2022/05/06 05:05:00;;;;;;;37.07;24.90;;;;;8.50;94618.00;;;;7403066;19;20620;-75
2022/05/06 05:07:34;;;;;;;33.67;24.00;;;;;8.50;94619.00;;;;7405722;19;20695;-76
2022/05/06 05:10:02;;;;;;;30.47;22.90;;;;;8.60;94619.00;;;;7402478;19;20180;-76
2022/05/06 05:12:31;;;;;;;35.33;24.73;;;;;8.60;94625.00;;;;7402986;19;20170;-75
2022/05/06 05:15:06;;;;;;;34.40;23.93;;;;;8.70;94620.00;;;;7403101;19;20151;-76
2022/05/06 05:17:33;;;;;;;35.57;23.03;;;;;8.90;94625.00;;;;7403422;19;20125;-74
2022/05/06 05:20:01;;;;;;;35.80;22.93;;;;;8.80;94632.00;;;;7400771;19;20255;-76
2022/05/06 05:22:36;;;;;;;33.23;23.27;;;;;8.70;94628.00;;;;7402384;19;20137;-76
2022/05/06 05:25:05;;;;;;;33.80;22.37;;;;;8.80;94635.00;;;;7406175;19;20145;-76
2022/05/06 05:27:39;;;;;;;31.67;22.20;;;;;8.80;94621.00;;;;7406498;19;20125;-76
2022/05/06 05:30:13;;;;;;;33.40;21.63;;;;;8.80;94627.00;;;;7401607;19;20145;-75
2022/05/06 05:32:41;;;;;;;34.57;22.43;;;;;8.90;94625.00;;;;7407342;19;20173;-76
2022/05/06 05:35:15;;;;;;;32.30;21.00;;;;;8.80;94626.00;;;;7404645;19;20545;-75
2022/05/06 05:37:50;;;;;;;33.40;22.83;;;;;8.80;94627.00;;;;7402721;19;20203;-77
2022/05/06 05:40:18;;;;;;;31.93;22.70;;;;;8.90;94633.00;;;;7403810;19;20165;-77
2022/05/06 05:42:46;;;;;;;35.43;23.27;;;;;8.90;94629.00;;;;7404895;19;20527;-77
2022/05/06 05:48:21;;;;;;;32.23;22.30;;;;;9.00;94624.00;;;;7402207;19;20212;-77
2022/05/06 05:50:55;;;;;;;32.50;23.63;;;;;9.10;94626.00;;;;7403206;19;20170;-78
2022/05/06 05:53:23;;;;;;;34.17;22.23;;;;;9.00;94617.00;;;;7400578;19;20137;-78
2022/05/06 05:55:51;;;;;;;31.03;21.93;;;;;9.10;94624.00;;;;7398763;19;20749;-77
2022/05/06 05:58:25;;;;;;;31.60;22.13;;;;;9.10;94624.00;;;;7398509;19;20136;-76
2022/05/06 06:00:54;;;;;;;30.83;21.57;;;;;9.10;94622.00;;;;7399251;19;20184;-76
2022/05/06 06:03:22;;;;;;;29.70;20.97;;;;;9.00;94626.00;;;;7402903;19;20156;-79
2022/05/06 06:05:56;;;;;;;37.07;22.43;;;;;8.90;94628.00;;;;7395950;19;20489;-78
2022/05/06 06:08:24;;;;;;;30.17;21.83;;;;;9.10;94633.00;;;;7400165;19;20596;-78
2022/05/06 06:10:53;;;;;;;30.73;21.57;;;;;9.00;94627.00;;;;7400315;19;20129;-78
2022/05/06 06:13:28;;;;;;;30.27;20.30;;;;;8.90;94631.00;;;;7401995;19;20139;-77
2022/05/06 06:15:56;;;;;;;31.60;21.17;;;;;9.00;94634.00;;;;7398925;19;20145;-78
2022/05/06 06:18:27;;;;;;;31.43;21.67;;;;;9.10;94637.00;;;;7400809;19;20137;-78
2022/05/06 06:21:01;;;;;;;32.83;21.33;;;;;9.10;94631.00;;;;7404029;19;20117;-77
2022/05/06 06:23:33;;;;;;;29.27;22.33;;;;;9.30;94625.00;;;;7402461;19;20161;-77
2022/05/06 06:26:01;;;;;;;32.00;21.73;;;;;9.30;94629.00;;;;7400457;19;20154;-79
2022/05/06 06:28:35;;;;;;;36.37;21.83;;;;;9.70;94624.00;;;;7399645;19;20652;-77
2022/05/06 06:31:03;;;;;;;30.90;21.30;;;;;9.70;94619.00;;;;7398906;19;20149;-77
2022/05/06 06:33:37;;;;;;;28.17;21.37;;;;;10.00;94624.00;;;;7397077;19;20596;-76
2022/05/06 06:36:18;;;;;;;31.58;21.13;;;;;10.10;94623.00;;;;7398132;19;20141;-78
2022/05/06 06:38:47;;;;;;;23.35;19.70;;;;;10.50;94616.00;;;;7398183;19;20617;-78
2022/05/06 06:41:22;;;;;;;25.67;20.85;;;;;11.10;94634.00;;;;7397640;19;20503;-78
2022/05/06 06:43:50;;;;;;;25.17;18.95;;;;;11.40;94634.00;;;;7397397;19;20143;-78
2022/05/06 06:46:18;;;;;;;26.38;18.05;;;;;11.00;94626.00;;;;7401332;19;20125;-78
2022/05/06 06:48:53;;;;;;;20.63;17.38;;;;;11.50;94632.00;;;;7392946;19;20173;-78
2022/05/06 06:51:24;;;;;;;19.80;16.58;;;;;11.80;94626.00;;;;7394259;19;20484;-78
2022/05/06 06:53:55;;;;;;;18.00;13.68;;;;;11.90;94633.00;;;;7394120;19;20153;-77
2022/05/06 06:56:30;;;;;;;15.98;14.18;;;;;12.10;94630.00;;;;7396050;19;20124;-77
2022/05/06 06:58:58;;;;;;;19.45;12.93;;;;;11.90;94631.00;;;;7393938;19;20155;-78
2022/05/06 07:01:25;;;;;;;16.08;13.63;;;;;12.10;94631.00;;;;7391343;19;20172;-78
2022/05/06 07:04:01;;;;;;;15.73;13.15;;;;;12.20;94630.00;;;;7394030;19;20473;-78
2022/05/06 07:12:09;;;;;;;23.27;13.40;;;;;11.80;94637.00;;;;7395797;19;20224;-77
2022/05/06 07:14:44;;;;;;;15.75;13.25;;;;;11.90;94639.00;;;;7393840;19;20542;-77
2022/05/06 07:17:13;;;;;;;18.25;13.38;;;;;11.90;94639.00;;;;7391491;19;20120;-77
2022/05/06 07:19:47;;;;;;;14.85;11.88;;;;;12.10;94645.00;;;;7392997;19;20220;-79
2022/05/06 07:22:22;;;;;;;17.88;12.90;;;;;12.30;94642.00;;;;7393350;19;20152;-79
2022/05/06 07:24:54;;;;;;;19.05;11.82;;;;;12.00;94645.00;;;;7396301;19;20140;-79
2022/05/06 07:27:29;;;;;;;15.00;10.95;;;;;12.20;94642.00;;;;7395211;19;20612;-79
2022/05/06 07:29:57;;;;;;;15.77;11.05;;;;;12.50;94645.00;;;;7391903;19;20148;-79
2022/05/06 07:32:26;;;;;;;12.70;10.77;;;;;12.40;94643.00;;;;7390694;19;20141;-79
2022/05/06 07:35:07;;;;;;;14.13;10.60;;;;;12.70;94638.00;;;;7390700;19;20188;-79
2022/05/06 07:37:35;;;;;;;13.90;11.00;;;;;12.50;94638.00;;;;7391785;19;20125;-78
2022/05/06 07:40:10;;;;;;;12.27;10.15;;;;;12.30;94635.00;;;;7392433;19;20136;-80
2022/05/06 07:42:38;;;;;;;11.43;8.73;;;;;12.30;94632.00;;;;7391063;19;20132;-80
2022/05/06 07:45:07;;;;;;;11.80;8.32;;;;;12.50;94635.00;;;;7392780;19;20157;-79
2022/05/06 07:47:41;;;;;;;14.00;9.43;;;;;12.50;94636.00;;;;7393051;19;20132;-80
2022/05/06 07:50:22;;;;;;;12.40;9.98;;;;;12.70;94642.00;;;;7392398;19;20141;-79
2022/05/06 07:52:56;;;;;;;13.80;9.18;;;;;13.40;94631.00;;;;7391777;19;20165;-79
2022/05/06 07:55:24;;;;;;;11.80;9.00;;;;;13.60;94625.00;;;;7392950;19;20144;-79
2022/05/06 07:57:53;;;;;;;12.45;8.88;;;;;13.90;94645.00;;;;7391263;19;20612;-79
2022/05/06 08:00:29;;;;;;;12.88;7.90;;;;;13.70;94643.00;;;;7392633;19;20127;-79
2022/05/06 08:05:56;;;;;;;16.90;8.77;;;;;13.30;94638.00;;;;7392914;19;20608;-80
2022/05/06 08:08:26;;;;;;;9.32;7.05;;;;;13.70;94641.00;;;;7394140;19;20155;-80
2022/05/06 08:11:01;;;;;;;10.20;7.38;;;;;14.10;94642.00;;;;7391997;19;20183;-77
2022/05/06 08:13:29;;;;;;;13.20;7.35;;;;;14.30;94637.00;;;;7394218;19;20141;-79
2022/05/06 08:15:57;;;;;;;10.65;7.57;;;;;14.30;94642.00;;;;7394429;19;20133;-79
2022/05/06 08:18:31;;;;;;;10.90;6.78;;;;;14.70;94643.00;;;;7391308;19;20148;-80
2022/05/06 08:20:59;;;;;;;9.90;7.05;;;;;15.10;94640.00;;;;7394317;19;20148;-79
2022/05/06 08:23:27;;;;;;;10.70;6.72;;;;;14.70;94653.00;;;;7394361;19;20141;-79
2022/05/06 08:26:02;;;;;;;9.43;7.03;;;;;14.20;94654.00;;;;7395354;19;20121;-78
2022/05/06 08:28:30;;;;;;;16.08;6.93;;;;;14.20;94652.00;;;;7394835;19;20148;-79
2022/05/06 08:30:58;;;;;;;10.77;7.25;;;;;14.10;94645.00;;;;7401951;19;20161;-79
2022/05/06 08:33:39;;;;;;;7.55;6.35;;;;;14.60;94651.00;;;;7401158;19;20168;-78
2022/05/06 08:36:14;;;;;;;10.25;6.35;;;;;14.70;94647.00;;;;7402959;19;20132;-79
2022/05/06 08:38:49;;;;;;;11.85;7.22;;;;;14.60;94654.00;;;;7402390;19;20140;-79
2022/05/06 08:41:19;;;;;;;9.98;7.30;;;;;14.90;94657.00;;;;7399590;19;20144;-78
2022/05/06 08:43:46;;;;;;;8.57;7.07;;;;;14.70;94658.00;;;;7396590;19;20159;-78
2022/05/06 08:52:02;;;;;;;11.00;6.18;;;;;13.90;94667.00;;;;7397177;19;20141;-79
2022/05/06 08:54:30;;;;;;;10.93;7.05;;;;;13.80;94678.00;;;;7397920;19;20164;-78
2022/05/06 08:56:59;;;;;;;10.15;6.45;;;;;14.10;94670.00;;;;7396148;19;20481;-79
2022/05/06 08:59:33;;;;;;;8.77;6.45;;;;;13.80;94681.00;;;;7396604;19;20612;-79
2022/05/06 09:02:01;;;;;;;11.30;6.00;;;;;13.60;94688.00;;;;7396427;19;20161;-79
2022/05/06 09:04:29;;;;;;;6.82;6.13;;;;;14.00;94681.00;;;;7398536;19;20125;-79
2022/05/06 09:07:17;;;;;;;9.20;6.10;;;;;14.20;94685.00;;;;7396730;19;20636;-78
2022/05/06 09:09:45;;;;;;;12.07;6.05;;;;;14.10;94683.00;;;;7396762;19;20164;-77
2022/05/06 09:12:42;;;;;;;9.00;5.60;;;;;14.40;94683.00;;;;7397264;19;20505;-77
2022/05/06 09:18:07;;;;;;;7.78;5.40;;;;;14.60;94685.00;;;;7395994;19;20159;-77
2022/05/06 09:20:41;;;;;;;10.98;5.55;;;;;14.70;94689.00;;;;7398455;19;20177;-79
2022/05/06 09:23:28;;;;;;;10.23;5.57;;;;;14.80;94681.00;;;;7397950;19;20592;-78
2022/05/06 09:25:56;;;;;;;6.68;4.97;;;;;15.00;94682.00;;;;7397197;19;20129;-79
2022/05/06 09:28:35;;;;;;;7.53;5.07;;;;;14.80;94684.00;;;;7396913;19;20157;-78
2022/05/06 09:31:08;;;;;;;6.70;4.80;;;;;14.50;94676.00;;;;7398278;19;20130;-77
2022/05/06 09:33:49;;;;;;;10.68;5.05;;;;;14.60;94673.00;;;;7396224;19;20516;-77
2022/05/06 09:36:29;;;;;;;12.23;5.38;;;;;14.80;94675.00;;;;7397878;19;20121;-76
2022/05/06 09:39:10;;;;;;;8.80;5.25;;;;;15.20;94671.00;;;;7399560;19;20483;-77
2022/05/06 09:41:39;;;;;;;6.13;4.75;;;;;15.10;94688.00;;;;7399383;19;20132;-79
2022/05/06 09:44:13;;;;;;;11.13;4.85;;;;;14.90;94681.00;;;;7397709;19;20129;-78
2022/05/06 09:46:41;;;;;;;6.70;4.30;;;;;14.60;94681.00;;;;7395545;19;20474;-78
2022/05/06 09:49:11;;;;;;;6.07;4.63;;;;;14.90;94688.00;;;;7397791;19;20147;-79
2022/05/06 09:52:13;;;;;;;11.07;4.60;;;;;15.20;94679.00;;;;7397156;19;20494;-77
2022/05/06 09:54:43;;;;;;;6.10;4.20;;;;;15.80;94674.00;;;;7396508;19;20153;-80
2022/05/06 09:57:18;;;;;;;10.43;4.05;;;;;16.20;94666.00;;;;7399237;19;20149;-77
2022/05/06 09:59:47;;;;;;;9.48;4.30;;;;;15.80;94670.00;;;;7398910;19;20477;-78
2022/05/06 10:02:17;;;;;;;5.68;4.07;;;;;16.50;94671.00;;;;7396884;19;20165;-78
2022/05/06 10:04:51;;;;;;;8.88;3.88;;;;;16.40;94673.00;;;;7397209;19;20472;-78
2022/05/06 10:07:20;;;;;;;7.45;3.97;;;;;16.50;94668.00;;;;7396475;19;20141;-80
2022/05/06 10:10:04;;;;;;;5.10;3.65;;;;;17.10;94658.00;;;;7397756;19;20659;-80
2022/05/06 10:12:44;;;;;;;9.30;3.83;;;;;18.40;94662.00;;;;7396691;19;20508;-79
2022/05/06 10:15:13;;;;;;;7.55;3.97;;;;;19.10;94654.00;;;;7395921;19;20129;-77
2022/05/06 10:17:55;;;;;;;6.82;3.70;;;;;19.30;94657.00;;;;7394674;19;20148;-77
2022/05/06 10:20:35;;;;;;;5.53;4.03;;;;;19.80;94658.00;;;;7396013;19;20140;-78
2022/05/06 10:23:12;;;;;;;5.55;3.28;;;;;20.00;94659.00;;;;7395596;19;20782;-78
2022/05/06 10:25:43;;;;;;;7.03;3.42;;;;;20.50;94658.00;;;;7396140;19;20141;-77
2022/05/06 10:34:29;;;;;;;8.05;4.40;;;;;20.30;94651.00;;;;7395819;19;20148;-76
2022/05/06 10:37:14;;;;;;;7.10;3.40;;;;;20.10;94657.00;;;;7397092;19;20213;-76
2022/05/06 10:39:49;;;;;;;9.10;3.00;;;;;18.60;94647.00;;;;7396949;19;20152;-76
2022/05/06 10:42:30;;;;;;;8.25;3.40;;;;;19.40;94647.00;;;;7394862;19;20141;-76
2022/05/06 10:45:22;;;;;;;4.88;3.20;;;;;18.50;94657.00;;;;7397011;19;20161;-76
2022/05/06 10:47:50;;;;;;;6.82;3.05;;;;;19.00;94656.00;;;;7397629;19;20484;-78
2022/05/06 10:50:29;;;;;;;9.98;2.60;;;;;19.10;94647.00;;;;7398844;19;20135;-76
2022/05/06 10:53:01;;;;;;;6.72;2.60;;;;;19.70;94629.00;;;;7394462;19;20132;-77
2022/05/06 10:55:35;;;;;;;4.85;2.42;;;;;20.30;94645.00;;;;7395959;19;20132;-77
2022/05/06 10:58:04;;;;;;;5.93;2.90;;;;;20.40;94648.00;;;;7398844;19;20152;-77
2022/05/06 11:00:38;;;;;;;8.05;2.97;;;;;20.30;94658.00;;;;7396796;19;20146;-76
2022/05/06 11:03:17;;;;;;;7.47;2.38;;;;;19.40;94657.00;;;;7393217;19;20140;-76
2022/05/06 11:05:50;;;;;;;7.47;2.60;;;;;19.40;94664.00;;;;7395916;19;20497;-76
2022/05/06 11:08:34;;;;;;;6.18;2.60;;;;;19.20;94658.00;;;;7393667;19;20216;-76
2022/05/06 11:11:12;;;;;;;5.13;2.45;;;;;19.40;94661.00;;;;7392350;19;20172;-77
2022/05/06 11:13:47;;;;;;;4.43;2.20;;;;;19.30;94652.00;;;;7395972;19;20506;-76
2022/05/06 11:16:16;;;;;;;5.25;2.40;;;;;20.30;94639.00;;;;7398420;19;20663;-76
2022/05/06 11:18:48;;;;;;;5.60;2.20;;;;;21.30;94651.00;;;;7392585;19;20133;-78
2022/05/06 11:21:23;;;;;;;5.68;2.50;;;;;21.10;94652.00;;;;7393866;19;20129;-77
2022/05/06 11:23:51;;;;;;;6.22;2.47;;;;;21.00;94659.00;;;;7393294;19;20140;-79
2022/05/06 11:26:32;;;;;;;5.57;2.58;;;;;20.80;94659.00;;;;7393860;19;20201;-77
2022/05/06 11:29:06;;;;;;;4.30;2.25;;;;;21.20;94644.00;;;;7393747;19;20137;-76
2022/05/06 11:31:34;;;;;;;3.28;2.35;;;;;21.70;94651.00;;;;7395390;19;20497;-78
2022/05/06 11:34:06;;;;;;;3.97;2.35;;;;;22.30;94651.00;;;;7391943;19;20133;-77
2022/05/06 11:36:49;;;;;;;3.67;2.40;;;;;22.20;94644.00;;;;7394566;19;20208;-77
2022/05/06 11:39:17;;;;;;;5.45;2.03;;;;;22.00;94659.00;;;;7393269;19;20144;-76
2022/05/06 11:41:52;;;;;;;5.28;2.78;;;;;22.10;94652.00;;;;7390060;19;20144;-78
2022/05/06 11:47:27;;;;;;;4.95;2.30;;;;;21.90;94657.00;;;;7391366;19;20137;-76
2022/05/06 11:47:29;;;;;;;3.80;2.28;;;;;21.40;94655.00;;;;7392748;19;20146;-76
2022/05/06 11:49:59;;;;;;;5.72;2.17;;;;;21.50;94652.00;;;;7397292;19;20137;-77
2022/05/06 11:54:58;;;;;;;5.90;1.98;;;;;22.70;94640.00;;;;6900636;19;10212280;-79
2022/05/06 11:58:33;;;;;;;3.47;2.10;;;;;21.30;94643.00;;;;6913074;19;9987627;-81
2022/05/06 12:01:09;;;;;;;2.88;2.05;;;;;20.10;94651.00;;;;7428343;19;20136;-78
2022/05/06 12:03:43;;;;;;;5.72;2.35;;;;;21.00;94659.00;;;;7425269;19;20116;-80
2022/05/06 12:06:37;;;;;;;2.83;2.03;;;;;20.70;94648.00;;;;7425447;19;20121;-80
2022/05/06 12:09:17;;;;;;;6.43;2.20;;;;;21.50;94651.00;;;;7425570;19;20132;-80
2022/05/06 12:11:45;;;;;;;5.05;2.20;;;;;21.70;94649.00;;;;7426594;19;20132;-80
2022/05/06 12:14:26;;;;;;;4.85;2.20;;;;;21.20;94654.00;;;;7424275;19;20203;-79
2022/05/06 12:16:59;;;;;;;5.65;2.15;;;;;21.50;94638.00;;;;7425156;19;20192;-80
2022/05/06 12:19:46;;;;;;;4.38;2.30;;;;;21.50;94644.00;;;;7427383;19;20172;-80
2022/05/06 12:22:20;;;;;;;4.45;2.13;;;;;22.80;94648.00;;;;7426710;19;20149;-79
2022/05/06 12:24:58;;;;;;;4.38;2.47;;;;;22.80;94651.00;;;;7424972;19;20179;-78
2022/05/06 12:27:31;;;;;;;3.88;2.22;;;;;22.00;94658.00;;;;7425931;19;20156;-80
2022/05/06 12:30:15;;;;;;;5.45;2.67;;;;;22.40;94650.00;;;;7425099;19;20136;-79
2022/05/06 12:32:59;;;;;;;4.90;2.50;;;;;22.80;94639.00;;;;7424630;19;20132;-79
2022/05/06 12:35:52;;;;;;;5.53;2.53;;;;;23.00;94658.00;;;;7424620;19;20485;-80
2022/05/06 12:38:21;;;;;;;3.78;3.00;;;;;22.30;94662.00;;;;7424069;19;20128;-79
2022/05/06 12:40:55;;;;;;;8.95;2.30;;;;;21.70;94653.00;;;;7426902;19;20128;-77
2022/05/06 12:43:27;;;;;;;4.53;2.83;;;;;22.00;94646.00;;;;7425624;19;20630;-79
2022/05/06 12:45:59;;;;;;;4.68;3.03;;;;;22.40;94644.00;;;;7423812;19;20144;-80
2022/05/06 12:51:21;;;;;;;6.82;2.95;;;;;24.10;94629.00;;;;7425908;19;20156;-79
2022/05/06 12:53:54;;;;;;;5.78;2.28;;;;;25.10;94631.00;;;;7422823;19;20516;-79
2022/05/06 12:56:35;;;;;;;7.80;2.15;;;;;24.50;94641.00;;;;7426945;19;20152;-79
2022/05/06 12:59:10;;;;;;;6.80;2.63;;;;;24.70;94627.00;;;;7424400;19;20586;-79
2022/05/06 13:01:39;;;;;;;5.05;2.08;;;;;25.50;94633.00;;;;7425399;19;20117;-80
2022/05/06 13:04:07;;;;;;;2.88;1.90;;;;;25.20;94646.00;;;;7422849;19;20602;-79
2022/05/06 13:06:41;;;;;;;4.38;2.35;;;;;24.70;94663.00;;;;7424612;19;20953;-78
2022/05/06 13:09:09;;;;;;;6.60;2.90;;;;;23.10;94672.00;;;;7400829;19;20143;-78
2022/05/06 13:11:36;;;;;;;4.15;2.40;;;;;23.10;94646.00;;;;7390832;19;20160;-78
2022/05/06 13:14:11;;;;;;;4.63;2.38;;;;;22.90;94641.00;;;;7391162;19;21040;-79
2022/05/06 13:16:39;;;;;;;4.25;2.03;;;;;23.60;94634.00;;;;7390819;19;20587;-79